sensor_id;sensor_type;location;lat;lon;timestamp;pressure;altitude;pressure_sealevel;temperature
64947;BMP280;51469;52.150;4.682;2023-09-07T00:02:55;102147.88;;;26.55
64947;BMP280;51469;52.150;4.682;2023-09-07T00:05:21;102157.72;;;26.60
64947;BMP280;51469;52.150;4.682;2023-09-07T00:07:46;102153.66;;;26.61
64947;BMP280;51469;52.150;4.682;2023-09-07T00:10:12;102147.25;;;26.60
64947;BMP280;51469;52.150;4.682;2023-09-07T00:12:37;102138.50;;;26.58
64947;BMP280;51469;52.150;4.682;2023-09-07T00:15:04;102146.00;;;26.52
64947;BMP280;51469;52.150;4.682;2023-09-07T00:17:31;102142.06;;;26.50
64947;BMP280;51469;52.150;4.682;2023-09-07T00:19:57;102146.75;;;26.53
64947;BMP280;51469;52.150;4.682;2023-09-07T00:22:23;102143.00;;;26.47
64947;BMP280;51469;52.150;4.682;2023-09-07T00:24:50;102145.47;;;26.45
64947;BMP280;51469;52.150;4.682;2023-09-07T00:27:16;102148.63;;;26.47
64947;BMP280;51469;52.150;4.682;2023-09-07T00:29:41;102151.75;;;26.49
64947;BMP280;51469;52.150;4.682;2023-09-07T00:32:06;102146.13;;;26.49
64947;BMP280;51469;52.150;4.682;2023-09-07T00:34:32;102152.34;;;26.44
64947;BMP280;51469;52.150;4.682;2023-09-07T00:36:58;102154.25;;;26.47
64947;BMP280;51469;52.150;4.682;2023-09-07T00:39:23;102156.41;;;26.43
64947;BMP280;51469;52.150;4.682;2023-09-07T00:41:48;102148.25;;;26.36
64947;BMP280;51469;52.150;4.682;2023-09-07T00:44:14;102150.06;;;26.30
64947;BMP280;51469;52.150;4.682;2023-09-07T00:46:39;102149.56;;;26.22
64947;BMP280;51469;52.150;4.682;2023-09-07T00:49:05;102141.84;;;26.14
64947;BMP280;51469;52.150;4.682;2023-09-07T00:51:31;102132.69;;;26.01
64947;BMP280;51469;52.150;4.682;2023-09-07T00:53:57;102138.31;;;26.01
64947;BMP280;51469;52.150;4.682;2023-09-07T00:56:25;102148.25;;;25.93
64947;BMP280;51469;52.150;4.682;2023-09-07T00:58:52;102134.09;;;25.84
64947;BMP280;51469;52.150;4.682;2023-09-07T01:01:18;102135.25;;;25.74
64947;BMP280;51469;52.150;4.682;2023-09-07T01:03:43;102135.22;;;25.65
64947;BMP280;51469;52.150;4.682;2023-09-07T01:06:17;102135.13;;;25.56
64947;BMP280;51469;52.150;4.682;2023-09-07T01:08:49;102138.59;;;25.48
64947;BMP280;51469;52.150;4.682;2023-09-07T01:11:18;102129.56;;;25.44
64947;BMP280;51469;52.150;4.682;2023-09-07T01:13:48;102135.72;;;25.39
64947;BMP280;51469;52.150;4.682;2023-09-07T01:16:14;102131.13;;;25.32
64947;BMP280;51469;52.150;4.682;2023-09-07T01:18:40;102126.06;;;25.27
64947;BMP280;51469;52.150;4.682;2023-09-07T01:21:07;102131.38;;;25.25
64947;BMP280;51469;52.150;4.682;2023-09-07T01:23:35;102134.19;;;25.25
64947;BMP280;51469;52.150;4.682;2023-09-07T01:26:01;102133.75;;;25.27
64947;BMP280;51469;52.150;4.682;2023-09-07T01:28:27;102133.75;;;25.27
64947;BMP280;51469;52.150;4.682;2023-09-07T01:30:52;102134.50;;;25.27
64947;BMP280;51469;52.150;4.682;2023-09-07T01:33:18;102128.13;;;25.27
64947;BMP280;51469;52.150;4.682;2023-09-07T01:35:43;102129.91;;;25.33
64947;BMP280;51469;52.150;4.682;2023-09-07T01:38:09;102125.84;;;25.34
64947;BMP280;51469;52.150;4.682;2023-09-07T01:40:34;102134.03;;;25.41
64947;BMP280;51469;52.150;4.682;2023-09-07T01:43:00;102118.44;;;25.40
64947;BMP280;51469;52.150;4.682;2023-09-07T01:45:26;102129.31;;;25.38
64947;BMP280;51469;52.150;4.682;2023-09-07T01:47:51;102129.31;;;25.38
64947;BMP280;51469;52.150;4.682;2023-09-07T01:50:17;102128.66;;;25.34
64947;BMP280;51469;52.150;4.682;2023-09-07T01:52:45;102132.06;;;25.29
64947;BMP280;51469;52.150;4.682;2023-09-07T01:55:10;102133.19;;;25.19
64947;BMP280;51469;52.150;4.682;2023-09-07T01:57:35;102123.53;;;25.08
64947;BMP280;51469;52.150;4.682;2023-09-07T02:00:01;102120.19;;;25.00
64947;BMP280;51469;52.150;4.682;2023-09-07T02:02:26;102123.66;;;24.92
64947;BMP280;51469;52.150;4.682;2023-09-07T02:04:52;102123.09;;;24.84
64947;BMP280;51469;52.150;4.682;2023-09-07T02:07:17;102123.31;;;24.77
64947;BMP280;51469;52.150;4.682;2023-09-07T02:09:42;102121.97;;;24.69
64947;BMP280;51469;52.150;4.682;2023-09-07T02:12:08;102129.84;;;24.62
64947;BMP280;51469;52.150;4.682;2023-09-07T02:14:33;102136.44;;;24.55
64947;BMP280;51469;52.150;4.682;2023-09-07T02:16:58;102140.25;;;24.49
64947;BMP280;51469;52.150;4.682;2023-09-07T02:19:24;102140.00;;;24.43
64947;BMP280;51469;52.150;4.682;2023-09-07T02:21:49;102129.34;;;24.38
64947;BMP280;51469;52.150;4.682;2023-09-07T02:24:16;102131.78;;;24.36
64947;BMP280;51469;52.150;4.682;2023-09-07T02:26:41;102132.69;;;24.33
64947;BMP280;51469;52.150;4.682;2023-09-07T02:29:13;102124.63;;;24.35
64947;BMP280;51469;52.150;4.682;2023-09-07T02:31:39;102124.06;;;24.40
64947;BMP280;51469;52.150;4.682;2023-09-07T02:34:05;102124.41;;;24.42
64947;BMP280;51469;52.150;4.682;2023-09-07T02:36:30;102126.75;;;24.44
64947;BMP280;51469;52.150;4.682;2023-09-07T02:38:55;102124.75;;;24.44
64947;BMP280;51469;52.150;4.682;2023-09-07T02:41:21;102122.84;;;24.41
64947;BMP280;51469;52.150;4.682;2023-09-07T02:43:46;102122.84;;;24.41
64947;BMP280;51469;52.150;4.682;2023-09-07T02:46:11;102123.53;;;24.45
64947;BMP280;51469;52.150;4.682;2023-09-07T02:48:37;102129.44;;;24.47
64947;BMP280;51469;52.150;4.682;2023-09-07T02:51:02;102131.59;;;24.43
64947;BMP280;51469;52.150;4.682;2023-09-07T02:53:28;102131.59;;;24.43
64947;BMP280;51469;52.150;4.682;2023-09-07T02:55:53;102131.59;;;24.43
64947;BMP280;51469;52.150;4.682;2023-09-07T02:58:19;102127.09;;;24.46
64947;BMP280;51469;52.150;4.682;2023-09-07T03:00:45;102126.63;;;24.47
64947;BMP280;51469;52.150;4.682;2023-09-07T03:03:12;102126.63;;;24.47
64947;BMP280;51469;52.150;4.682;2023-09-07T03:05:41;102132.16;;;24.51
64947;BMP280;51469;52.150;4.682;2023-09-07T03:08:07;102132.25;;;24.47
64947;BMP280;51469;52.150;4.682;2023-09-07T03:10:34;102130.69;;;24.46
64947;BMP280;51469;52.150;4.682;2023-09-07T03:13:00;102137.19;;;24.43
64947;BMP280;51469;52.150;4.682;2023-09-07T03:15:25;102127.53;;;24.44
64947;BMP280;51469;52.150;4.682;2023-09-07T03:17:51;102132.81;;;24.42
64947;BMP280;51469;52.150;4.682;2023-09-07T03:20:17;102132.47;;;24.40
64947;BMP280;51469;52.150;4.682;2023-09-07T03:22:43;102130.91;;;24.39
64947;BMP280;51469;52.150;4.682;2023-09-07T03:25:08;102126.19;;;24.36
64947;BMP280;51469;52.150;4.682;2023-09-07T03:27:35;102128.31;;;24.32
64947;BMP280;51469;52.150;4.682;2023-09-07T03:30:01;102131.13;;;24.32
64947;BMP280;51469;52.150;4.682;2023-09-07T03:32:26;102125.50;;;24.32
64947;BMP280;51469;52.150;4.682;2023-09-07T03:34:57;102122.47;;;24.27
64947;BMP280;51469;52.150;4.682;2023-09-07T03:37:22;102119.41;;;24.21
64947;BMP280;51469;52.150;4.682;2023-09-07T03:39:47;102120.31;;;24.18
64947;BMP280;51469;52.150;4.682;2023-09-07T03:42:13;102124.00;;;24.15
64947;BMP280;51469;52.150;4.682;2023-09-07T03:44:38;102124.56;;;24.10
64947;BMP280;51469;52.150;4.682;2023-09-07T03:47:04;102115.78;;;24.08
64947;BMP280;51469;52.150;4.682;2023-09-07T03:49:30;102121.75;;;24.10
64947;BMP280;51469;52.150;4.682;2023-09-07T03:51:55;102125.44;;;24.07
64947;BMP280;51469;52.150;4.682;2023-09-07T03:54:21;102121.84;;;24.07
64947;BMP280;51469;52.150;4.682;2023-09-07T03:56:46;102119.84;;;24.07
64947;BMP280;51469;52.150;4.682;2023-09-07T03:59:12;102121.38;;;24.08
64947;BMP280;51469;52.150;4.682;2023-09-07T04:01:37;102122.66;;;24.07
64947;BMP280;51469;52.150;4.682;2023-09-07T04:04:02;102118.25;;;24.06
64947;BMP280;51469;52.150;4.682;2023-09-07T04:06:28;102119.84;;;24.07
64947;BMP280;51469;52.150;4.682;2023-09-07T04:08:53;102133.88;;;24.07
64947;BMP280;51469;52.150;4.682;2023-09-07T04:11:18;102129.47;;;24.06
64947;BMP280;51469;52.150;4.682;2023-09-07T04:13:44;102129.56;;;24.03
64947;BMP280;51469;52.150;4.682;2023-09-07T04:16:09;102127.53;;;24.03
64947;BMP280;51469;52.150;4.682;2023-09-07T04:18:35;102132.72;;;24.05
64947;BMP280;51469;52.150;4.682;2023-09-07T04:21:08;102132.25;;;24.06
64947;BMP280;51469;52.150;4.682;2023-09-07T04:23:33;102124.38;;;24.01
64947;BMP280;51469;52.150;4.682;2023-09-07T04:26:09;102140.34;;;24.04
64947;BMP280;51469;52.150;4.682;2023-09-07T04:28:34;102125.19;;;24.02
64947;BMP280;51469;52.150;4.682;2023-09-07T04:31:01;102136.06;;;24.00
64947;BMP280;51469;52.150;4.682;2023-09-07T04:33:26;102136.06;;;24.00
64947;BMP280;51469;52.150;4.682;2023-09-07T04:35:51;102136.16;;;23.96
64947;BMP280;51469;52.150;4.682;2023-09-07T04:38:17;102139.47;;;23.91
64947;BMP280;51469;52.150;4.682;2023-09-07T04:40:42;102140.38;;;23.88
64947;BMP280;51469;52.150;4.682;2023-09-07T04:43:07;102139.69;;;23.84
64947;BMP280;51469;52.150;4.682;2023-09-07T04:45:33;102137.75;;;23.81
64947;BMP280;51469;52.150;4.682;2023-09-07T04:47:58;102139.06;;;23.77
64947;BMP280;51469;52.150;4.682;2023-09-07T04:50:23;102141.66;;;23.71
64947;BMP280;51469;52.150;4.682;2023-09-07T04:52:49;102139.38;;;23.66
64947;BMP280;51469;52.150;4.682;2023-09-07T04:55:14;102133.94;;;23.59
64947;BMP280;51469;52.150;4.682;2023-09-07T04:57:39;102139.63;;;23.56
64947;BMP280;51469;52.150;4.682;2023-09-07T05:00:08;102142.91;;;23.54
64947;BMP280;51469;52.150;4.682;2023-09-07T05:02:36;102136.50;;;23.54
64947;BMP280;51469;52.150;4.682;2023-09-07T05:05:06;102148.41;;;23.58
64947;BMP280;51469;52.150;4.682;2023-09-07T05:07:32;102149.91;;;23.62
64947;BMP280;51469;52.150;4.682;2023-09-07T05:09:57;102153.81;;;23.65
64947;BMP280;51469;52.150;4.682;2023-09-07T05:12:23;102153.53;;;23.75
64947;BMP280;51469;52.150;4.682;2023-09-07T05:14:49;102160.72;;;23.76
64947;BMP280;51469;52.150;4.682;2023-09-07T05:17:14;102160.72;;;23.76
64947;BMP280;51469;52.150;4.682;2023-09-07T05:19:39;102163.88;;;23.78
64947;BMP280;51469;52.150;4.682;2023-09-07T05:22:05;102161.41;;;23.80
64947;BMP280;51469;52.150;4.682;2023-09-07T05:24:30;102162.59;;;23.83
64947;BMP280;51469;52.150;4.682;2023-09-07T05:26:56;102164.22;;;23.80
64947;BMP280;51469;52.150;4.682;2023-09-07T05:29:21;102155.13;;;23.76
64947;BMP280;51469;52.150;4.682;2023-09-07T05:31:47;102166.34;;;23.76
64947;BMP280;51469;52.150;4.682;2023-09-07T05:34:13;102163.88;;;23.78
64947;BMP280;51469;52.150;4.682;2023-09-07T05:36:38;102165.47;;;23.79
64947;BMP280;51469;52.150;4.682;2023-09-07T05:39:03;102158.19;;;23.82
64947;BMP280;51469;52.150;4.682;2023-09-07T05:41:29;102162.97;;;23.81
64947;BMP280;51469;52.150;4.682;2023-09-07T05:43:55;102149.34;;;23.83
64947;BMP280;51469;52.150;4.682;2023-09-07T05:46:20;102164.94;;;23.84
64947;BMP280;51469;52.150;4.682;2023-09-07T05:48:45;102160.78;;;23.89
64947;BMP280;51469;52.150;4.682;2023-09-07T05:51:11;102160.28;;;23.94
64947;BMP280;51469;52.150;4.682;2023-09-07T05:53:36;102169.78;;;23.96
64947;BMP280;51469;52.150;4.682;2023-09-07T05:56:02;102169.78;;;23.96
64947;BMP280;51469;52.150;4.682;2023-09-07T05:58:27;102175.75;;;23.98
64947;BMP280;51469;52.150;4.682;2023-09-07T06:00:52;102172.03;;;24.01
64947;BMP280;51469;52.150;4.682;2023-09-07T06:03:18;102176.78;;;24.04
64947;BMP280;51469;52.150;4.682;2023-09-07T06:05:43;102168.03;;;24.02
64947;BMP280;51469;52.150;4.682;2023-09-07T06:08:09;102171.31;;;24.01
64947;BMP280;51469;52.150;4.682;2023-09-07T06:10:35;102179.81;;;23.97
64947;BMP280;51469;52.150;4.682;2023-09-07T06:13:00;102179.34;;;23.99
64947;BMP280;51469;52.150;4.682;2023-09-07T06:15:26;102180.16;;;23.99
64947;BMP280;51469;52.150;4.682;2023-09-07T06:17:52;102188.88;;;24.01
64947;BMP280;51469;52.150;4.682;2023-09-07T06:20:17;102185.75;;;23.99
64947;BMP280;51469;52.150;4.682;2023-09-07T06:22:44;102191.84;;;24.10
64947;BMP280;51469;52.150;4.682;2023-09-07T06:25:10;102196.38;;;24.20
64947;BMP280;51469;52.150;4.682;2023-09-07T06:27:35;102198.28;;;24.23
64947;BMP280;51469;52.150;4.682;2023-09-07T06:30:01;102207.41;;;24.27
64947;BMP280;51469;52.150;4.682;2023-09-07T06:32:26;102197.59;;;24.35
64947;BMP280;51469;52.150;4.682;2023-09-07T06:34:51;102206.00;;;24.48
64947;BMP280;51469;52.150;4.682;2023-09-07T06:37:17;102207.03;;;24.54
64947;BMP280;51469;52.150;4.682;2023-09-07T06:39:43;102204.13;;;24.57
64947;BMP280;51469;52.150;4.682;2023-09-07T06:42:09;102213.59;;;24.63
64947;BMP280;51469;52.150;4.682;2023-09-07T06:44:35;102214.75;;;24.78
64947;BMP280;51469;52.150;4.682;2023-09-07T06:47:00;102201.50;;;24.91
64947;BMP280;51469;52.150;4.682;2023-09-07T06:49:26;102203.84;;;25.05
64947;BMP280;51469;52.150;4.682;2023-09-07T06:51:55;102200.63;;;25.19
64947;BMP280;51469;52.150;4.682;2023-09-07T06:54:20;102201.72;;;25.34
64947;BMP280;51469;52.150;4.682;2023-09-07T06:56:45;102194.06;;;25.47
64947;BMP280;51469;52.150;4.682;2023-09-07T06:59:11;102204.16;;;25.57
64947;BMP280;51469;52.150;4.682;2023-09-07T07:01:36;102197.13;;;25.74
64947;BMP280;51469;52.150;4.682;2023-09-07T07:04:01;102195.72;;;25.91
64947;BMP280;51469;52.150;4.682;2023-09-07T07:06:27;102190.84;;;26.04
64947;BMP280;51469;52.150;4.682;2023-09-07T07:08:55;102192.69;;;26.19
64947;BMP280;51469;52.150;4.682;2023-09-07T07:11:21;102192.59;;;26.32
64947;BMP280;51469;52.150;4.682;2023-09-07T07:13:46;102194.25;;;26.42
64947;BMP280;51469;52.150;4.682;2023-09-07T07:16:11;102189.31;;;26.55
64947;BMP280;51469;52.150;4.682;2023-09-07T07:18:37;102193.44;;;26.63
64947;BMP280;51469;52.150;4.682;2023-09-07T07:21:02;102185.63;;;26.67
64947;BMP280;51469;52.150;4.682;2023-09-07T07:23:27;102188.19;;;26.83
64947;BMP280;51469;52.150;4.682;2023-09-07T07:25:53;102194.38;;;26.99
64947;BMP280;51469;52.150;4.682;2023-09-07T07:28:18;102189.56;;;27.09
64947;BMP280;51469;52.150;4.682;2023-09-07T07:30:44;102181.13;;;27.27
64947;BMP280;51469;52.150;4.682;2023-09-07T07:33:09;102189.63;;;27.45
64947;BMP280;51469;52.150;4.682;2023-09-07T07:35:37;102185.22;;;27.52
64947;BMP280;51469;52.150;4.682;2023-09-07T07:38:03;102186.81;;;27.62
64947;BMP280;51469;52.150;4.682;2023-09-07T07:40:29;102181.06;;;27.75
64947;BMP280;51469;52.150;4.682;2023-09-07T07:42:55;102174.59;;;27.74
64947;BMP280;51469;52.150;4.682;2023-09-07T07:45:20;102171.19;;;27.79
64947;BMP280;51469;52.150;4.682;2023-09-07T07:47:48;102175.53;;;27.89
64947;BMP280;51469;52.150;4.682;2023-09-07T07:50:14;102177.91;;;27.91
64947;BMP280;51469;52.150;4.682;2023-09-07T07:52:40;102168.97;;;27.92
64947;BMP280;51469;52.150;4.682;2023-09-07T07:55:06;102166.75;;;28.05
64947;BMP280;51469;52.150;4.682;2023-09-07T07:57:32;102172.09;;;28.21
64947;BMP280;51469;52.150;4.682;2023-09-07T07:59:57;102167.00;;;28.34
64947;BMP280;51469;52.150;4.682;2023-09-07T08:02:22;102165.56;;;28.48
64947;BMP280;51469;52.150;4.682;2023-09-07T08:04:48;102160.75;;;28.63
64947;BMP280;51469;52.150;4.682;2023-09-07T08:07:13;102151.41;;;28.57
64947;BMP280;51469;52.150;4.682;2023-09-07T08:09:39;102162.34;;;28.64
64947;BMP280;51469;52.150;4.682;2023-09-07T08:12:07;102167.84;;;28.67
64947;BMP280;51469;52.150;4.682;2023-09-07T08:14:32;102164.34;;;28.72
64947;BMP280;51469;52.150;4.682;2023-09-07T08:16:58;102167.75;;;28.85
64947;BMP280;51469;52.150;4.682;2023-09-07T08:19:24;102159.81;;;28.98
64947;BMP280;51469;52.150;4.682;2023-09-07T08:21:50;102162.31;;;29.05
64947;BMP280;51469;52.150;4.682;2023-09-07T08:24:16;102158.84;;;29.25
64947;BMP280;51469;52.150;4.682;2023-09-07T08:26:42;102160.59;;;29.45
64947;BMP280;51469;52.150;4.682;2023-09-07T08:29:09;102159.06;;;29.59
64947;BMP280;51469;52.150;4.682;2023-09-07T08:31:36;102151.81;;;29.58
64947;BMP280;51469;52.150;4.682;2023-09-07T08:34:05;102152.03;;;29.69
64947;BMP280;51469;52.150;4.682;2023-09-07T08:36:31;102146.59;;;29.80
64947;BMP280;51469;52.150;4.682;2023-09-07T08:38:59;102146.56;;;29.94
64947;BMP280;51469;52.150;4.682;2023-09-07T08:41:26;102147.09;;;30.07
64947;BMP280;51469;52.150;4.682;2023-09-07T08:43:57;102143.53;;;30.27
64947;BMP280;51469;52.150;4.682;2023-09-07T08:46:23;102144.44;;;30.33
64947;BMP280;51469;52.150;4.682;2023-09-07T08:48:49;102141.97;;;30.26
64947;BMP280;51469;52.150;4.682;2023-09-07T08:51:16;102144.03;;;30.40
64947;BMP280;51469;52.150;4.682;2023-09-07T08:53:42;102142.25;;;30.42
64947;BMP280;51469;52.150;4.682;2023-09-07T08:56:12;102131.88;;;30.54
64947;BMP280;51469;52.150;4.682;2023-09-07T08:58:37;102140.47;;;30.59
64947;BMP280;51469;52.150;4.682;2023-09-07T09:01:03;102137.06;;;30.75
64947;BMP280;51469;52.150;4.682;2023-09-07T09:03:28;102132.75;;;30.80
64947;BMP280;51469;52.150;4.682;2023-09-07T09:05:56;102129.44;;;30.81
64947;BMP280;51469;52.150;4.682;2023-09-07T09:08:21;102126.25;;;30.93
64947;BMP280;51469;52.150;4.682;2023-09-07T09:10:58;102123.06;;;31.06
64947;BMP280;51469;52.150;4.682;2023-09-07T09:13:31;102121.13;;;31.17
64947;BMP280;51469;52.150;4.682;2023-09-07T09:15:59;102128.31;;;31.13
64947;BMP280;51469;52.150;4.682;2023-09-07T09:18:26;102123.94;;;31.17
64947;BMP280;51469;52.150;4.682;2023-09-07T09:20:52;102130.41;;;31.18
64947;BMP280;51469;52.150;4.682;2023-09-07T09:23:18;102124.59;;;31.27
64947;BMP280;51469;52.150;4.682;2023-09-07T09:25:43;102124.22;;;31.39
64947;BMP280;51469;52.150;4.682;2023-09-07T09:28:09;102123.69;;;31.61
64947;BMP280;51469;52.150;4.682;2023-09-07T09:30:35;102119.66;;;31.73
64947;BMP280;51469;52.150;4.682;2023-09-07T09:33:01;102120.78;;;31.55
64947;BMP280;51469;52.150;4.682;2023-09-07T09:35:26;102127.81;;;31.65
64947;BMP280;51469;52.150;4.682;2023-09-07T09:37:52;102121.34;;;31.59
64947;BMP280;51469;52.150;4.682;2023-09-07T09:40:17;102116.88;;;31.78
64947;BMP280;51469;52.150;4.682;2023-09-07T09:42:44;102119.94;;;31.75
64947;BMP280;51469;52.150;4.682;2023-09-07T09:45:11;102117.44;;;31.82
64947;BMP280;51469;52.150;4.682;2023-09-07T09:47:39;102127.25;;;31.87
64947;BMP280;51469;52.150;4.682;2023-09-07T09:50:06;102122.94;;;31.97
64947;BMP280;51469;52.150;4.682;2023-09-07T09:52:34;102129.38;;;31.92
64947;BMP280;51469;52.150;4.682;2023-09-07T09:55:00;102128.97;;;32.04
64947;BMP280;51469;52.150;4.682;2023-09-07T09:57:26;102125.75;;;32.22
64947;BMP280;51469;52.150;4.682;2023-09-07T09:59:54;102128.50;;;32.11
64947;BMP280;51469;52.150;4.682;2023-09-07T10:02:20;102130.69;;;32.27
64947;BMP280;51469;52.150;4.682;2023-09-07T10:04:46;102131.38;;;32.53
64947;BMP280;51469;52.150;4.682;2023-09-07T10:07:11;102122.59;;;32.51
64947;BMP280;51469;52.150;4.682;2023-09-07T10:09:38;102119.94;;;32.42
64947;BMP280;51469;52.150;4.682;2023-09-07T10:12:03;102104.78;;;32.56
64947;BMP280;51469;52.150;4.682;2023-09-07T10:14:40;102110.63;;;32.94
64947;BMP280;51469;52.150;4.682;2023-09-07T10:17:06;102118.13;;;32.92
64947;BMP280;51469;52.150;4.682;2023-09-07T10:19:32;102117.63;;;33.04
64947;BMP280;51469;52.150;4.682;2023-09-07T10:21:59;102118.13;;;32.92
64947;BMP280;51469;52.150;4.682;2023-09-07T10:27:03;102102.41;;;33.13
64947;BMP280;51469;52.150;4.682;2023-09-07T10:29:44;102117.19;;;33.28
64947;BMP280;51469;52.150;4.682;2023-09-07T10:32:10;102117.41;;;33.13
64947;BMP280;51469;52.150;4.682;2023-09-07T10:34:40;102108.84;;;33.08
64947;BMP280;51469;52.150;4.682;2023-09-07T10:37:10;102121.34;;;33.27
64947;BMP280;51469;52.150;4.682;2023-09-07T10:39:38;102116.16;;;33.42
64947;BMP280;51469;52.150;4.682;2023-09-07T10:42:04;102118.75;;;33.51
64947;BMP280;51469;52.150;4.682;2023-09-07T10:44:29;102109.47;;;33.55
64947;BMP280;51469;52.150;4.682;2023-09-07T10:46:56;102108.41;;;33.48
64947;BMP280;51469;52.150;4.682;2023-09-07T10:49:23;102103.78;;;33.66
64947;BMP280;51469;52.150;4.682;2023-09-07T10:51:49;102102.75;;;33.64
64947;BMP280;51469;52.150;4.682;2023-09-07T10:56:43;102103.22;;;33.41
64947;BMP280;51469;52.150;4.682;2023-09-07T10:59:08;102099.63;;;33.35
64947;BMP280;51469;52.150;4.682;2023-09-07T11:01:34;102089.50;;;33.17
64947;BMP280;51469;52.150;4.682;2023-09-07T11:03:59;102092.63;;;33.47
64947;BMP280;51469;52.150;4.682;2023-09-07T11:06:25;102094.44;;;33.60
64947;BMP280;51469;52.150;4.682;2023-09-07T11:08:51;102094.22;;;33.64
64947;BMP280;51469;52.150;4.682;2023-09-07T11:11:16;102094.22;;;33.64
64947;BMP280;51469;52.150;4.682;2023-09-07T11:13:42;102100.16;;;33.71
64947;BMP280;51469;52.150;4.682;2023-09-07T11:16:09;102094.19;;;33.86
64947;BMP280;51469;52.150;4.682;2023-09-07T11:18:35;102095.47;;;33.79
64947;BMP280;51469;52.150;4.682;2023-09-07T11:21:01;102086.63;;;33.99
64947;BMP280;51469;52.150;4.682;2023-09-07T11:23:29;102081.97;;;34.07
64947;BMP280;51469;52.150;4.682;2023-09-07T11:25:56;102078.31;;;34.12
64947;BMP280;51469;52.150;4.682;2023-09-07T11:28:23;102082.25;;;33.93
64947;BMP280;51469;52.150;4.682;2023-09-07T11:33:16;102067.41;;;34.38
64947;BMP280;51469;52.150;4.682;2023-09-07T11:35:41;102074.16;;;34.24
64947;BMP280;51469;52.150;4.682;2023-09-07T11:38:07;102075.72;;;34.25
64947;BMP280;51469;52.150;4.682;2023-09-07T11:40:35;102068.94;;;34.39
64947;BMP280;51469;52.150;4.682;2023-09-07T11:43:01;102066.06;;;34.45
64947;BMP280;51469;52.150;4.682;2023-09-07T11:45:26;102065.25;;;34.55
64947;BMP280;51469;52.150;4.682;2023-09-07T11:47:51;102064.41;;;34.66
64947;BMP280;51469;52.150;4.682;2023-09-07T11:50:17;102069.22;;;34.87
64947;BMP280;51469;52.150;4.682;2023-09-07T11:52:44;102060.41;;;34.85
64947;BMP280;51469;52.150;4.682;2023-09-07T11:55:09;102044.28;;;34.93
64947;BMP280;51469;52.150;4.682;2023-09-07T11:57:36;102055.13;;;35.00
64947;BMP280;51469;52.150;4.682;2023-09-07T12:00:02;102051.59;;;35.23
64947;BMP280;51469;52.150;4.682;2023-09-07T12:02:28;102057.41;;;35.07
64947;BMP280;51469;52.150;4.682;2023-09-07T12:04:53;102043.63;;;35.11
64947;BMP280;51469;52.150;4.682;2023-09-07T12:07:19;102038.47;;;35.04
64947;BMP280;51469;52.150;4.682;2023-09-07T12:09:45;102036.59;;;35.17
64947;BMP280;51469;52.150;4.682;2023-09-07T12:12:10;102035.03;;;35.16
64947;BMP280;51469;52.150;4.682;2023-09-07T12:14:36;102031.00;;;35.01
64947;BMP280;51469;52.150;4.682;2023-09-07T12:17:01;102026.09;;;35.31
64947;BMP280;51469;52.150;4.682;2023-09-07T12:19:26;102022.59;;;35.14
64947;BMP280;51469;52.150;4.682;2023-09-07T12:21:52;102023.34;;;35.20
64947;BMP280;51469;52.150;4.682;2023-09-07T12:24:17;102015.38;;;35.37
64947;BMP280;51469;52.150;4.682;2023-09-07T12:26:43;102010.53;;;35.56
64947;BMP280;51469;52.150;4.682;2023-09-07T12:29:08;102013.53;;;35.69
64947;BMP280;51469;52.150;4.682;2023-09-07T12:31:34;102002.78;;;35.51
64947;BMP280;51469;52.150;4.682;2023-09-07T12:33:59;102010.75;;;35.82
64947;BMP280;51469;52.150;4.682;2023-09-07T12:36:24;102016.25;;;35.56
64947;BMP280;51469;52.150;4.682;2023-09-07T12:38:53;102006.56;;;35.64
64947;BMP280;51469;52.150;4.682;2023-09-07T12:41:18;102008.41;;;35.62
64947;BMP280;51469;52.150;4.682;2023-09-07T12:43:44;102013.03;;;35.65
64947;BMP280;51469;52.150;4.682;2023-09-07T12:46:09;102020.69;;;35.81
64947;BMP280;51469;52.150;4.682;2023-09-07T12:48:35;102017.38;;;35.47
64947;BMP280;51469;52.150;4.682;2023-09-07T12:51:00;102016.38;;;35.45
64947;BMP280;51469;52.150;4.682;2023-09-07T12:53:26;102014.06;;;35.67
64947;BMP280;51469;52.150;4.682;2023-09-07T12:55:54;102011.00;;;35.60
64947;BMP280;51469;52.150;4.682;2023-09-07T12:58:20;102007.59;;;35.37
64947;BMP280;51469;52.150;4.682;2023-09-07T13:00:45;102009.59;;;35.48
64947;BMP280;51469;52.150;4.682;2023-09-07T13:03:13;102005.19;;;35.71
64947;BMP280;51469;52.150;4.682;2023-09-07T13:05:38;101999.00;;;35.67
64947;BMP280;51469;52.150;4.682;2023-09-07T13:08:04;101998.53;;;35.63
64947;BMP280;51469;52.150;4.682;2023-09-07T13:10:29;101997.78;;;35.33
64947;BMP280;51469;52.150;4.682;2023-09-07T13:12:55;101997.31;;;35.29
64947;BMP280;51469;52.150;4.682;2023-09-07T13:15:20;101985.66;;;35.27
64947;BMP280;51469;52.150;4.682;2023-09-07T13:17:46;101984.09;;;35.26
64947;BMP280;51469;52.150;4.682;2023-09-07T13:20:11;101982.69;;;35.38
64947;BMP280;51469;52.150;4.682;2023-09-07T13:22:37;101987.34;;;35.41
64947;BMP280;51469;52.150;4.682;2023-09-07T13:25:03;101985.00;;;35.39
64947;BMP280;51469;52.150;4.682;2023-09-07T13:27:30;101976.75;;;35.60
64947;BMP280;51469;52.150;4.682;2023-09-07T13:29:55;101972.00;;;35.86
64947;BMP280;51469;52.150;4.682;2023-09-07T13:32:21;101979.22;;;35.92
64947;BMP280;51469;52.150;4.682;2023-09-07T13:34:47;101966.59;;;35.64
64947;BMP280;51469;52.150;4.682;2023-09-07T13:37:12;101966.34;;;35.38
64947;BMP280;51469;52.150;4.682;2023-09-07T13:39:37;101966.16;;;35.31
64947;BMP280;51469;52.150;4.682;2023-09-07T13:42:03;101961.63;;;35.17
64947;BMP280;51469;52.150;4.682;2023-09-07T13:44:28;101957.09;;;35.51
64947;BMP280;51469;52.150;4.682;2023-09-07T13:46:53;101950.09;;;35.28
64947;BMP280;51469;52.150;4.682;2023-09-07T13:49:20;101947.38;;;35.41
64947;BMP280;51469;52.150;4.682;2023-09-07T13:51:45;101947.13;;;35.39
64947;BMP280;51469;52.150;4.682;2023-09-07T13:54:10;101949.69;;;35.84
64947;BMP280;51469;52.150;4.682;2023-09-07T13:56:36;101946.06;;;35.66
64947;BMP280;51469;52.150;4.682;2023-09-07T13:59:01;101943.91;;;35.24